sensor_id;sensor_type;location;lat;lon;timestamp;temperature;humidity
31967;DHT22;18496;52.042;6.812;2024-02-23T00:01:15;6.80;99.90
31967;DHT22;18496;52.042;6.812;2024-02-23T00:03:18;6.70;99.90
31967;DHT22;18496;52.042;6.812;2024-02-23T00:05:22;6.70;99.90
31967;DHT22;18496;52.042;6.812;2024-02-23T00:07:26;6.70;99.90
31967;DHT22;18496;52.042;6.812;2024-02-23T00:09:29;6.70;99.90
31967;DHT22;18496;52.042;6.812;2024-02-23T00:11:33;6.70;99.90
31967;DHT22;18496;52.042;6.812;2024-02-23T00:13:37;6.70;99.90
31967;DHT22;18496;52.042;6.812;2024-02-23T00:15:41;6.60;99.90
31967;DHT22;18496;52.042;6.812;2024-02-23T00:17:44;6.60;99.90
31967;DHT22;18496;52.042;6.812;2024-02-23T00:19:48;6.60;99.90
31967;DHT22;18496;52.042;6.812;2024-02-23T00:21:52;6.60;99.90
31967;DHT22;18496;52.042;6.812;2024-02-23T00:23:56;6.60;99.90
31967;DHT22;18496;52.042;6.812;2024-02-23T00:26:03;6.60;99.90
31967;DHT22;18496;52.042;6.812;2024-02-23T00:28:06;6.60;99.90
31967;DHT22;18496;52.042;6.812;2024-02-23T00:30:11;6.60;99.90
31967;DHT22;18496;52.042;6.812;2024-02-23T00:32:15;6.60;99.90
31967;DHT22;18496;52.042;6.812;2024-02-23T00:34:18;6.60;99.90
31967;DHT22;18496;52.042;6.812;2024-02-23T00:36:22;6.60;99.90
31967;DHT22;18496;52.042;6.812;2024-02-23T00:38:26;6.60;99.90
31967;DHT22;18496;52.042;6.812;2024-02-23T00:40:30;6.60;99.90
31967;DHT22;18496;52.042;6.812;2024-02-23T00:42:34;6.60;99.90
31967;DHT22;18496;52.042;6.812;2024-02-23T00:44:37;6.70;99.90
31967;DHT22;18496;52.042;6.812;2024-02-23T00:46:41;6.70;99.90
31967;DHT22;18496;52.042;6.812;2024-02-23T00:48:45;6.70;99.90
31967;DHT22;18496;52.042;6.812;2024-02-23T00:50:49;6.70;99.90
31967;DHT22;18496;52.042;6.812;2024-02-23T00:52:53;6.70;99.90
31967;DHT22;18496;52.042;6.812;2024-02-23T00:54:57;6.70;99.90
31967;DHT22;18496;52.042;6.812;2024-02-23T00:57:00;6.70;99.90
31967;DHT22;18496;52.042;6.812;2024-02-23T00:59:04;6.70;99.90
31967;DHT22;18496;52.042;6.812;2024-02-23T01:01:08;6.70;99.90
31967;DHT22;18496;52.042;6.812;2024-02-23T01:03:11;6.70;99.90
31967;DHT22;18496;52.042;6.812;2024-02-23T01:05:15;6.70;99.90
31967;DHT22;18496;52.042;6.812;2024-02-23T01:07:19;6.70;99.90
31967;DHT22;18496;52.042;6.812;2024-02-23T01:09:22;6.60;99.90
31967;DHT22;18496;52.042;6.812;2024-02-23T01:11:26;6.60;99.90
31967;DHT22;18496;52.042;6.812;2024-02-23T01:13:30;6.60;99.90
31967;DHT22;18496;52.042;6.812;2024-02-23T01:15:33;6.60;99.90
31967;DHT22;18496;52.042;6.812;2024-02-23T01:17:37;6.60;99.90
31967;DHT22;18496;52.042;6.812;2024-02-23T01:19:42;6.60;99.90
31967;DHT22;18496;52.042;6.812;2024-02-23T01:21:46;6.60;99.90
31967;DHT22;18496;52.042;6.812;2024-02-23T01:23:50;6.60;99.90
31967;DHT22;18496;52.042;6.812;2024-02-23T01:25:53;6.60;99.90
31967;DHT22;18496;52.042;6.812;2024-02-23T01:27:57;6.60;99.90
31967;DHT22;18496;52.042;6.812;2024-02-23T01:30:01;6.60;99.90
31967;DHT22;18496;52.042;6.812;2024-02-23T01:32:05;6.60;99.90
31967;DHT22;18496;52.042;6.812;2024-02-23T01:34:09;6.60;99.90
31967;DHT22;18496;52.042;6.812;2024-02-23T01:36:12;6.60;99.90
31967;DHT22;18496;52.042;6.812;2024-02-23T01:38:16;6.60;99.90
31967;DHT22;18496;52.042;6.812;2024-02-23T01:40:23;6.70;99.90
31967;DHT22;18496;52.042;6.812;2024-02-23T01:42:27;6.70;99.90
31967;DHT22;18496;52.042;6.812;2024-02-23T01:44:31;6.70;99.90
31967;DHT22;18496;52.042;6.812;2024-02-23T01:46:35;6.70;99.90
31967;DHT22;18496;52.042;6.812;2024-02-23T01:48:39;6.60;99.90
31967;DHT22;18496;52.042;6.812;2024-02-23T01:50:43;6.70;99.90
31967;DHT22;18496;52.042;6.812;2024-02-23T01:52:48;6.70;99.90
31967;DHT22;18496;52.042;6.812;2024-02-23T01:54:53;6.70;99.90
31967;DHT22;18496;52.042;6.812;2024-02-23T01:56:58;6.70;99.90
31967;DHT22;18496;52.042;6.812;2024-02-23T01:59:02;6.80;99.90
31967;DHT22;18496;52.042;6.812;2024-02-23T02:01:07;6.80;99.90
31967;DHT22;18496;52.042;6.812;2024-02-23T02:03:10;6.80;99.90
31967;DHT22;18496;52.042;6.812;2024-02-23T02:05:14;6.80;99.90
31967;DHT22;18496;52.042;6.812;2024-02-23T02:07:18;6.80;99.90
31967;DHT22;18496;52.042;6.812;2024-02-23T02:09:23;6.80;99.90
31967;DHT22;18496;52.042;6.812;2024-02-23T02:11:27;6.80;99.90
31967;DHT22;18496;52.042;6.812;2024-02-23T02:13:30;6.80;99.90
31967;DHT22;18496;52.042;6.812;2024-02-23T02:15:34;6.80;99.90
31967;DHT22;18496;52.042;6.812;2024-02-23T02:17:38;6.90;99.90
31967;DHT22;18496;52.042;6.812;2024-02-23T02:19:47;6.90;99.90
31967;DHT22;18496;52.042;6.812;2024-02-23T02:21:51;6.90;99.90
31967;DHT22;18496;52.042;6.812;2024-02-23T02:23:55;6.90;99.90
31967;DHT22;18496;52.042;6.812;2024-02-23T02:26:00;6.90;99.90
31967;DHT22;18496;52.042;6.812;2024-02-23T02:28:06;6.90;99.90
31967;DHT22;18496;52.042;6.812;2024-02-23T02:30:12;6.90;99.90
31967;DHT22;18496;52.042;6.812;2024-02-23T02:32:15;6.90;99.90
31967;DHT22;18496;52.042;6.812;2024-02-23T02:34:19;6.90;99.90
31967;DHT22;18496;52.042;6.812;2024-02-23T02:36:23;6.90;99.90
31967;DHT22;18496;52.042;6.812;2024-02-23T02:38:26;7.00;99.90
31967;DHT22;18496;52.042;6.812;2024-02-23T02:40:30;7.00;99.90
31967;DHT22;18496;52.042;6.812;2024-02-23T02:42:35;7.00;99.90
31967;DHT22;18496;52.042;6.812;2024-02-23T02:44:38;6.90;99.90
31967;DHT22;18496;52.042;6.812;2024-02-23T02:46:42;6.90;99.90
31967;DHT22;18496;52.042;6.812;2024-02-23T02:48:46;7.00;99.90
31967;DHT22;18496;52.042;6.812;2024-02-23T02:50:50;6.90;99.90
31967;DHT22;18496;52.042;6.812;2024-02-23T02:52:54;6.90;99.90
31967;DHT22;18496;52.042;6.812;2024-02-23T02:54:58;7.00;99.90
31967;DHT22;18496;52.042;6.812;2024-02-23T02:57:02;7.00;99.90
31967;DHT22;18496;52.042;6.812;2024-02-23T02:59:06;7.00;99.90
31967;DHT22;18496;52.042;6.812;2024-02-23T03:01:10;7.00;99.90
31967;DHT22;18496;52.042;6.812;2024-02-23T03:03:13;7.00;99.90
31967;DHT22;18496;52.042;6.812;2024-02-23T03:05:17;7.00;99.90
31967;DHT22;18496;52.042;6.812;2024-02-23T03:07:21;7.00;99.90
31967;DHT22;18496;52.042;6.812;2024-02-23T03:09:24;7.10;99.90
31967;DHT22;18496;52.042;6.812;2024-02-23T03:11:28;7.10;99.90
31967;DHT22;18496;52.042;6.812;2024-02-23T03:13:32;7.10;99.90
31967;DHT22;18496;52.042;6.812;2024-02-23T03:15:35;7.10;99.90
31967;DHT22;18496;52.042;6.812;2024-02-23T03:17:39;7.10;99.90
31967;DHT22;18496;52.042;6.812;2024-02-23T03:19:43;7.00;99.90
31967;DHT22;18496;52.042;6.812;2024-02-23T03:21:47;7.10;99.90
31967;DHT22;18496;52.042;6.812;2024-02-23T03:23:50;7.00;99.90
31967;DHT22;18496;52.042;6.812;2024-02-23T03:25:54;7.00;99.90
31967;DHT22;18496;52.042;6.812;2024-02-23T03:27:57;7.00;99.90
31967;DHT22;18496;52.042;6.812;2024-02-23T03:30:02;7.00;99.90
31967;DHT22;18496;52.042;6.812;2024-02-23T03:32:07;7.00;99.90
31967;DHT22;18496;52.042;6.812;2024-02-23T03:34:10;7.00;99.90
31967;DHT22;18496;52.042;6.812;2024-02-23T03:36:14;7.00;99.90
31967;DHT22;18496;52.042;6.812;2024-02-23T03:38:18;7.10;99.90
31967;DHT22;18496;52.042;6.812;2024-02-23T03:40:21;7.10;99.90
31967;DHT22;18496;52.042;6.812;2024-02-23T03:42:25;7.10;99.90
31967;DHT22;18496;52.042;6.812;2024-02-23T03:44:30;7.20;99.90
31967;DHT22;18496;52.042;6.812;2024-02-23T03:46:35;7.20;99.90
31967;DHT22;18496;52.042;6.812;2024-02-23T03:48:38;7.20;99.90
31967;DHT22;18496;52.042;6.812;2024-02-23T03:50:42;7.10;99.90
31967;DHT22;18496;52.042;6.812;2024-02-23T03:52:46;7.10;99.90
31967;DHT22;18496;52.042;6.812;2024-02-23T03:54:50;7.10;99.90
31967;DHT22;18496;52.042;6.812;2024-02-23T03:56:55;7.00;99.90
31967;DHT22;18496;52.042;6.812;2024-02-23T03:58:58;7.00;99.90
31967;DHT22;18496;52.042;6.812;2024-02-23T04:01:02;7.00;99.90
31967;DHT22;18496;52.042;6.812;2024-02-23T04:03:06;7.00;99.90
31967;DHT22;18496;52.042;6.812;2024-02-23T04:05:10;6.90;99.90
31967;DHT22;18496;52.042;6.812;2024-02-23T04:07:14;6.90;99.90
31967;DHT22;18496;52.042;6.812;2024-02-23T04:09:17;6.90;99.90
31967;DHT22;18496;52.042;6.812;2024-02-23T04:11:21;6.90;99.90
31967;DHT22;18496;52.042;6.812;2024-02-23T04:13:25;6.90;99.90
31967;DHT22;18496;52.042;6.812;2024-02-23T04:15:29;6.90;99.90
31967;DHT22;18496;52.042;6.812;2024-02-23T04:17:33;6.90;99.90
31967;DHT22;18496;52.042;6.812;2024-02-23T04:19:36;6.90;99.90
31967;DHT22;18496;52.042;6.812;2024-02-23T04:21:40;6.90;99.90
31967;DHT22;18496;52.042;6.812;2024-02-23T04:23:44;6.80;99.90
31967;DHT22;18496;52.042;6.812;2024-02-23T04:25:47;6.80;99.90
31967;DHT22;18496;52.042;6.812;2024-02-23T04:27:51;6.80;99.90
31967;DHT22;18496;52.042;6.812;2024-02-23T04:29:55;6.80;99.90
31967;DHT22;18496;52.042;6.812;2024-02-23T04:32:02;6.80;99.90
31967;DHT22;18496;52.042;6.812;2024-02-23T04:34:06;6.80;99.90
31967;DHT22;18496;52.042;6.812;2024-02-23T04:36:10;6.80;99.90
31967;DHT22;18496;52.042;6.812;2024-02-23T04:38:13;6.80;99.90
31967;DHT22;18496;52.042;6.812;2024-02-23T04:40:17;6.80;99.90
31967;DHT22;18496;52.042;6.812;2024-02-23T04:42:21;6.80;99.90
31967;DHT22;18496;52.042;6.812;2024-02-23T04:44:24;6.80;99.90
31967;DHT22;18496;52.042;6.812;2024-02-23T04:46:28;6.90;99.90
31967;DHT22;18496;52.042;6.812;2024-02-23T04:48:31;6.80;99.90
31967;DHT22;18496;52.042;6.812;2024-02-23T04:50:35;6.90;99.90
31967;DHT22;18496;52.042;6.812;2024-02-23T04:52:39;6.90;99.90
31967;DHT22;18496;52.042;6.812;2024-02-23T04:54:43;6.90;99.90
31967;DHT22;18496;52.042;6.812;2024-02-23T04:56:47;6.90;99.90
31967;DHT22;18496;52.042;6.812;2024-02-23T04:58:51;6.90;99.90
31967;DHT22;18496;52.042;6.812;2024-02-23T05:00:55;6.90;99.90
31967;DHT22;18496;52.042;6.812;2024-02-23T05:02:59;6.90;99.90
31967;DHT22;18496;52.042;6.812;2024-02-23T05:05:06;6.80;99.90
31967;DHT22;18496;52.042;6.812;2024-02-23T05:07:11;6.90;99.90
31967;DHT22;18496;52.042;6.812;2024-02-23T05:09:14;6.90;99.90
31967;DHT22;18496;52.042;6.812;2024-02-23T05:11:18;6.90;99.90
31967;DHT22;18496;52.042;6.812;2024-02-23T05:13:22;6.90;99.90
31967;DHT22;18496;52.042;6.812;2024-02-23T05:15:26;6.90;99.90
31967;DHT22;18496;52.042;6.812;2024-02-23T05:17:30;7.00;99.90
31967;DHT22;18496;52.042;6.812;2024-02-23T05:19:33;6.90;99.90
31967;DHT22;18496;52.042;6.812;2024-02-23T05:21:37;7.00;99.90
31967;DHT22;18496;52.042;6.812;2024-02-23T05:23:41;7.00;99.90
31967;DHT22;18496;52.042;6.812;2024-02-23T05:25:44;7.00;99.90
31967;DHT22;18496;52.042;6.812;2024-02-23T05:27:48;7.00;99.90
31967;DHT22;18496;52.042;6.812;2024-02-23T05:29:52;7.00;99.90
31967;DHT22;18496;52.042;6.812;2024-02-23T05:31:56;7.00;99.90
31967;DHT22;18496;52.042;6.812;2024-02-23T05:34:00;7.00;99.90
31967;DHT22;18496;52.042;6.812;2024-02-23T05:36:04;7.00;99.90
31967;DHT22;18496;52.042;6.812;2024-02-23T05:38:08;7.00;99.90
31967;DHT22;18496;52.042;6.812;2024-02-23T05:40:12;7.00;99.90
31967;DHT22;18496;52.042;6.812;2024-02-23T05:42:16;7.00;99.90
31967;DHT22;18496;52.042;6.812;2024-02-23T05:44:19;7.00;99.90
31967;DHT22;18496;52.042;6.812;2024-02-23T05:46:23;7.00;99.90
31967;DHT22;18496;52.042;6.812;2024-02-23T05:48:27;6.90;99.90
31967;DHT22;18496;52.042;6.812;2024-02-23T05:50:30;7.00;99.90
31967;DHT22;18496;52.042;6.812;2024-02-23T05:52:35;7.00;99.90
31967;DHT22;18496;52.042;6.812;2024-02-23T05:54:40;7.00;99.90
31967;DHT22;18496;52.042;6.812;2024-02-23T05:56:44;7.00;99.90
31967;DHT22;18496;52.042;6.812;2024-02-23T05:58:49;7.00;99.90
31967;DHT22;18496;52.042;6.812;2024-02-23T06:00:53;7.00;99.90
31967;DHT22;18496;52.042;6.812;2024-02-23T06:02:57;7.10;99.90
31967;DHT22;18496;52.042;6.812;2024-02-23T06:05:00;7.00;99.90
31967;DHT22;18496;52.042;6.812;2024-02-23T06:07:04;7.10;99.90
31967;DHT22;18496;52.042;6.812;2024-02-23T06:09:08;7.00;99.90
31967;DHT22;18496;52.042;6.812;2024-02-23T06:11:12;7.10;99.90
31967;DHT22;18496;52.042;6.812;2024-02-23T06:13:15;7.00;99.90
31967;DHT22;18496;52.042;6.812;2024-02-23T06:15:19;7.10;99.90
31967;DHT22;18496;52.042;6.812;2024-02-23T06:17:23;7.10;99.90
31967;DHT22;18496;52.042;6.812;2024-02-23T06:19:27;7.10;99.90
31967;DHT22;18496;52.042;6.812;2024-02-23T06:21:30;7.10;99.90
31967;DHT22;18496;52.042;6.812;2024-02-23T06:23:35;7.10;99.90
31967;DHT22;18496;52.042;6.812;2024-02-23T06:25:39;7.10;99.90
31967;DHT22;18496;52.042;6.812;2024-02-23T06:27:43;7.10;99.90
31967;DHT22;18496;52.042;6.812;2024-02-23T06:29:46;7.10;99.90
31967;DHT22;18496;52.042;6.812;2024-02-23T06:31:50;7.10;99.90
31967;DHT22;18496;52.042;6.812;2024-02-23T06:33:53;7.10;99.90
31967;DHT22;18496;52.042;6.812;2024-02-23T06:35:57;7.10;99.90
31967;DHT22;18496;52.042;6.812;2024-02-23T06:38:01;7.10;99.90
31967;DHT22;18496;52.042;6.812;2024-02-23T06:40:05;7.20;99.90
31967;DHT22;18496;52.042;6.812;2024-02-23T06:42:10;7.20;99.90
31967;DHT22;18496;52.042;6.812;2024-02-23T06:44:14;7.20;99.90
31967;DHT22;18496;52.042;6.812;2024-02-23T06:46:19;7.10;99.90
31967;DHT22;18496;52.042;6.812;2024-02-23T06:48:24;7.20;99.90
31967;DHT22;18496;52.042;6.812;2024-02-23T06:50:29;7.10;99.90
31967;DHT22;18496;52.042;6.812;2024-02-23T06:52:33;7.20;99.90
31967;DHT22;18496;52.042;6.812;2024-02-23T06:54:37;7.20;99.90
31967;DHT22;18496;52.042;6.812;2024-02-23T06:56:40;7.30;99.90
31967;DHT22;18496;52.042;6.812;2024-02-23T06:58:44;7.20;99.90
31967;DHT22;18496;52.042;6.812;2024-02-23T07:00:48;7.30;99.90
31967;DHT22;18496;52.042;6.812;2024-02-23T07:02:51;7.30;99.90
31967;DHT22;18496;52.042;6.812;2024-02-23T07:04:55;7.30;99.90
31967;DHT22;18496;52.042;6.812;2024-02-23T07:07:00;7.30;99.90
31967;DHT22;18496;52.042;6.812;2024-02-23T07:09:10;7.30;99.90
31967;DHT22;18496;52.042;6.812;2024-02-23T07:11:14;7.30;99.90
31967;DHT22;18496;52.042;6.812;2024-02-23T07:13:18;7.30;99.90
31967;DHT22;18496;52.042;6.812;2024-02-23T07:15:23;7.30;99.90
31967;DHT22;18496;52.042;6.812;2024-02-23T07:17:28;7.30;99.90
31967;DHT22;18496;52.042;6.812;2024-02-23T07:19:31;7.30;99.90
31967;DHT22;18496;52.042;6.812;2024-02-23T07:21:35;7.40;99.90
31967;DHT22;18496;52.042;6.812;2024-02-23T07:23:39;7.40;99.90
31967;DHT22;18496;52.042;6.812;2024-02-23T07:25:43;7.40;99.90
31967;DHT22;18496;52.042;6.812;2024-02-23T07:27:47;7.30;99.90
31967;DHT22;18496;52.042;6.812;2024-02-23T07:29:52;7.40;99.90
31967;DHT22;18496;52.042;6.812;2024-02-23T07:31:56;7.40;99.90
31967;DHT22;18496;52.042;6.812;2024-02-23T07:33:59;7.40;99.90
31967;DHT22;18496;52.042;6.812;2024-02-23T07:36:03;7.40;99.90
31967;DHT22;18496;52.042;6.812;2024-02-23T07:38:08;7.40;99.90
31967;DHT22;18496;52.042;6.812;2024-02-23T07:40:12;7.40;99.90
31967;DHT22;18496;52.042;6.812;2024-02-23T07:42:16;7.40;99.90
31967;DHT22;18496;52.042;6.812;2024-02-23T07:44:22;7.50;99.90
31967;DHT22;18496;52.042;6.812;2024-02-23T07:46:25;7.50;99.90
31967;DHT22;18496;52.042;6.812;2024-02-23T07:48:29;7.50;99.90
31967;DHT22;18496;52.042;6.812;2024-02-23T07:50:33;7.50;99.90
31967;DHT22;18496;52.042;6.812;2024-02-23T07:52:38;7.60;99.90
31967;DHT22;18496;52.042;6.812;2024-02-23T07:54:42;7.50;99.90
31967;DHT22;18496;52.042;6.812;2024-02-23T07:56:45;7.50;99.90
31967;DHT22;18496;52.042;6.812;2024-02-23T07:58:49;7.50;99.90
31967;DHT22;18496;52.042;6.812;2024-02-23T08:00:53;7.50;99.90
31967;DHT22;18496;52.042;6.812;2024-02-23T08:02:56;7.50;99.90
31967;DHT22;18496;52.042;6.812;2024-02-23T08:05:00;7.60;99.90
31967;DHT22;18496;52.042;6.812;2024-02-23T08:07:04;7.60;99.90
31967;DHT22;18496;52.042;6.812;2024-02-23T08:09:08;7.60;99.90
31967;DHT22;18496;52.042;6.812;2024-02-23T08:11:12;7.60;99.90
31967;DHT22;18496;52.042;6.812;2024-02-23T08:13:17;7.60;99.90
31967;DHT22;18496;52.042;6.812;2024-02-23T08:15:21;7.70;99.90
31967;DHT22;18496;52.042;6.812;2024-02-23T08:17:25;7.60;99.90
31967;DHT22;18496;52.042;6.812;2024-02-23T08:19:29;7.60;99.90
31967;DHT22;18496;52.042;6.812;2024-02-23T08:21:33;7.60;99.90
31967;DHT22;18496;52.042;6.812;2024-02-23T08:23:37;7.70;99.90
31967;DHT22;18496;52.042;6.812;2024-02-23T08:25:40;7.70;99.90
31967;DHT22;18496;52.042;6.812;2024-02-23T08:27:44;7.70;99.90
31967;DHT22;18496;52.042;6.812;2024-02-23T08:29:48;7.70;99.90
31967;DHT22;18496;52.042;6.812;2024-02-23T08:31:52;7.80;99.90
31967;DHT22;18496;52.042;6.812;2024-02-23T08:33:55;7.70;99.90
31967;DHT22;18496;52.042;6.812;2024-02-23T08:35:59;7.80;99.90
31967;DHT22;18496;52.042;6.812;2024-02-23T08:38:03;7.80;99.90
31967;DHT22;18496;52.042;6.812;2024-02-23T08:40:08;7.80;99.90
31967;DHT22;18496;52.042;6.812;2024-02-23T08:42:12;7.80;99.90
31967;DHT22;18496;52.042;6.812;2024-02-23T08:44:16;7.80;99.90
31967;DHT22;18496;52.042;6.812;2024-02-23T08:46:19;7.80;99.90
31967;DHT22;18496;52.042;6.812;2024-02-23T08:48:23;7.80;99.90
31967;DHT22;18496;52.042;6.812;2024-02-23T08:50:27;7.80;99.90
31967;DHT22;18496;52.042;6.812;2024-02-23T08:52:30;7.80;99.90
31967;DHT22;18496;52.042;6.812;2024-02-23T08:54:34;7.90;99.90
31967;DHT22;18496;52.042;6.812;2024-02-23T08:56:38;7.90;99.90
31967;DHT22;18496;52.042;6.812;2024-02-23T08:58:46;7.90;99.90
31967;DHT22;18496;52.042;6.812;2024-02-23T09:00:49;7.90;99.90
31967;DHT22;18496;52.042;6.812;2024-02-23T09:02:53;8.00;99.90
31967;DHT22;18496;52.042;6.812;2024-02-23T09:04:57;8.00;99.90
31967;DHT22;18496;52.042;6.812;2024-02-23T09:07:00;8.00;99.90
31967;DHT22;18496;52.042;6.812;2024-02-23T09:09:04;8.00;99.90
31967;DHT22;18496;52.042;6.812;2024-02-23T09:11:08;8.00;99.90
31967;DHT22;18496;52.042;6.812;2024-02-23T09:13:12;8.00;99.90
31967;DHT22;18496;52.042;6.812;2024-02-23T09:15:16;8.00;99.90
31967;DHT22;18496;52.042;6.812;2024-02-23T09:17:19;8.00;99.90
31967;DHT22;18496;52.042;6.812;2024-02-23T09:19:24;8.00;99.90
31967;DHT22;18496;52.042;6.812;2024-02-23T09:21:27;8.00;99.90
31967;DHT22;18496;52.042;6.812;2024-02-23T09:23:31;8.00;99.90
31967;DHT22;18496;52.042;6.812;2024-02-23T09:25:36;8.10;99.90
31967;DHT22;18496;52.042;6.812;2024-02-23T09:27:39;8.10;99.90
31967;DHT22;18496;52.042;6.812;2024-02-23T09:29:46;8.10;99.90
31967;DHT22;18496;52.042;6.812;2024-02-23T09:31:50;8.10;99.90
31967;DHT22;18496;52.042;6.812;2024-02-23T09:33:54;8.10;99.90
31967;DHT22;18496;52.042;6.812;2024-02-23T09:35:58;8.20;99.90
31967;DHT22;18496;52.042;6.812;2024-02-23T09:38:02;8.20;99.90
31967;DHT22;18496;52.042;6.812;2024-02-23T09:40:06;8.20;99.90
31967;DHT22;18496;52.042;6.812;2024-02-23T09:42:10;8.20;99.90
31967;DHT22;18496;52.042;6.812;2024-02-23T09:44:15;8.30;99.90
31967;DHT22;18496;52.042;6.812;2024-02-23T09:46:21;8.30;99.90
31967;DHT22;18496;52.042;6.812;2024-02-23T09:48:25;8.40;99.90
31967;DHT22;18496;52.042;6.812;2024-02-23T09:50:29;8.40;99.90
31967;DHT22;18496;52.042;6.812;2024-02-23T09:52:33;8.50;99.90
31967;DHT22;18496;52.042;6.812;2024-02-23T09:54:37;8.50;99.90
31967;DHT22;18496;52.042;6.812;2024-02-23T09:56:44;8.50;99.90
31967;DHT22;18496;52.042;6.812;2024-02-23T09:58:49;8.50;99.90
31967;DHT22;18496;52.042;6.812;2024-02-23T10:00:54;8.50;99.90
31967;DHT22;18496;52.042;6.812;2024-02-23T10:02:58;8.50;99.90
31967;DHT22;18496;52.042;6.812;2024-02-23T10:05:02;8.50;99.90
31967;DHT22;18496;52.042;6.812;2024-02-23T10:07:06;8.50;99.90
31967;DHT22;18496;52.042;6.812;2024-02-23T10:09:10;8.50;99.90
31967;DHT22;18496;52.042;6.812;2024-02-23T10:11:23;8.50;99.90
31967;DHT22;18496;52.042;6.812;2024-02-23T10:13:27;8.50;99.90
31967;DHT22;18496;52.042;6.812;2024-02-23T10:15:32;8.60;99.90
31967;DHT22;18496;52.042;6.812;2024-02-23T10:17:36;8.60;99.90
31967;DHT22;18496;52.042;6.812;2024-02-23T10:19:40;8.50;99.90
31967;DHT22;18496;52.042;6.812;2024-02-23T10:21:45;8.60;99.90
31967;DHT22;18496;52.042;6.812;2024-02-23T10:23:49;8.60;99.90
31967;DHT22;18496;52.042;6.812;2024-02-23T10:25:54;8.60;99.90
31967;DHT22;18496;52.042;6.812;2024-02-23T10:27:57;8.60;99.90
31967;DHT22;18496;52.042;6.812;2024-02-23T10:30:03;8.60;99.90
31967;DHT22;18496;52.042;6.812;2024-02-23T10:32:10;8.60;99.90
31967;DHT22;18496;52.042;6.812;2024-02-23T10:34:19;8.60;99.90
31967;DHT22;18496;52.042;6.812;2024-02-23T10:36:24;8.60;99.90
31967;DHT22;18496;52.042;6.812;2024-02-23T10:38:32;8.60;99.90
31967;DHT22;18496;52.042;6.812;2024-02-23T10:40:39;8.60;99.90
31967;DHT22;18496;52.042;6.812;2024-02-23T10:42:45;8.60;99.90
31967;DHT22;18496;52.042;6.812;2024-02-23T10:44:56;8.60;99.90
31967;DHT22;18496;52.042;6.812;2024-02-23T10:47:04;8.70;99.90
31967;DHT22;18496;52.042;6.812;2024-02-23T10:49:09;8.70;99.90
31967;DHT22;18496;52.042;6.812;2024-02-23T10:51:14;8.80;99.90
31967;DHT22;18496;52.042;6.812;2024-02-23T10:53:19;8.70;99.90
31967;DHT22;18496;52.042;6.812;2024-02-23T10:55:24;8.70;99.90
31967;DHT22;18496;52.042;6.812;2024-02-23T10:57:34;8.70;99.90
31967;DHT22;18496;52.042;6.812;2024-02-23T10:59:38;8.80;99.90
31967;DHT22;18496;52.042;6.812;2024-02-23T11:01:42;8.70;99.90
31967;DHT22;18496;52.042;6.812;2024-02-23T11:03:47;8.70;99.90
31967;DHT22;18496;52.042;6.812;2024-02-23T11:05:54;8.70;99.90
31967;DHT22;18496;52.042;6.812;2024-02-23T11:07:58;8.70;99.90
31967;DHT22;18496;52.042;6.812;2024-02-23T11:10:04;8.70;99.90
31967;DHT22;18496;52.042;6.812;2024-02-23T11:12:08;8.60;99.90
31967;DHT22;18496;52.042;6.812;2024-02-23T11:14:13;8.60;99.90
31967;DHT22;18496;52.042;6.812;2024-02-23T11:16:23;8.60;99.90
31967;DHT22;18496;52.042;6.812;2024-02-23T11:18:29;8.60;99.90
31967;DHT22;18496;52.042;6.812;2024-02-23T11:20:37;8.50;99.90
31967;DHT22;18496;52.042;6.812;2024-02-23T11:22:41;8.60;99.90
31967;DHT22;18496;52.042;6.812;2024-02-23T11:24:44;8.60;99.90
31967;DHT22;18496;52.042;6.812;2024-02-23T11:26:48;8.60;99.90
31967;DHT22;18496;52.042;6.812;2024-02-23T11:28:54;8.60;99.90
31967;DHT22;18496;52.042;6.812;2024-02-23T11:30:58;8.60;99.90
31967;DHT22;18496;52.042;6.812;2024-02-23T11:33:08;8.60;99.90
31967;DHT22;18496;52.042;6.812;2024-02-23T11:35:13;8.60;99.90
31967;DHT22;18496;52.042;6.812;2024-02-23T11:37:18;8.60;99.90
31967;DHT22;18496;52.042;6.812;2024-02-23T11:39:22;8.50;99.90
31967;DHT22;18496;52.042;6.812;2024-02-23T11:41:27;8.40;99.90
31967;DHT22;18496;52.042;6.812;2024-02-23T11:43:34;8.40;99.90
31967;DHT22;18496;52.042;6.812;2024-02-23T11:45:38;8.40;99.90
31967;DHT22;18496;52.042;6.812;2024-02-23T11:47:53;8.30;99.90
31967;DHT22;18496;52.042;6.812;2024-02-23T11:50:02;8.40;99.90
31967;DHT22;18496;52.042;6.812;2024-02-23T11:52:06;8.30;99.90
31967;DHT22;18496;52.042;6.812;2024-02-23T11:54:10;8.30;99.90
31967;DHT22;18496;52.042;6.812;2024-02-23T11:56:14;8.40;99.90
31967;DHT22;18496;52.042;6.812;2024-02-23T11:58:18;8.40;99.90
31967;DHT22;18496;52.042;6.812;2024-02-23T12:00:23;8.50;99.90
31967;DHT22;18496;52.042;6.812;2024-02-23T12:02:27;8.50;99.90
31967;DHT22;18496;52.042;6.812;2024-02-23T12:04:31;8.50;99.90
31967;DHT22;18496;52.042;6.812;2024-02-23T12:06:34;8.50;99.90
31967;DHT22;18496;52.042;6.812;2024-02-23T12:08:38;8.50;99.90
31967;DHT22;18496;52.042;6.812;2024-02-23T12:10:42;8.50;99.90
31967;DHT22;18496;52.042;6.812;2024-02-23T12:12:46;8.50;99.90
31967;DHT22;18496;52.042;6.812;2024-02-23T12:14:50;8.50;99.90
31967;DHT22;18496;52.042;6.812;2024-02-23T12:16:54;8.50;99.90
31967;DHT22;18496;52.042;6.812;2024-02-23T12:18:57;8.60;99.90
31967;DHT22;18496;52.042;6.812;2024-02-23T12:21:03;8.60;99.90
31967;DHT22;18496;52.042;6.812;2024-02-23T12:23:07;8.60;99.90
31967;DHT22;18496;52.042;6.812;2024-02-23T12:25:12;8.60;99.90
31967;DHT22;18496;52.042;6.812;2024-02-23T12:27:17;8.60;99.90
31967;DHT22;18496;52.042;6.812;2024-02-23T12:29:27;8.60;99.90
31967;DHT22;18496;52.042;6.812;2024-02-23T12:31:41;8.60;99.90
31967;DHT22;18496;52.042;6.812;2024-02-23T12:33:46;8.50;99.90
31967;DHT22;18496;52.042;6.812;2024-02-23T12:35:54;8.50;99.90
31967;DHT22;18496;52.042;6.812;2024-02-23T12:37:58;8.50;99.90
31967;DHT22;18496;52.042;6.812;2024-02-23T12:40:01;8.50;99.90
31967;DHT22;18496;52.042;6.812;2024-02-23T12:42:05;8.50;99.90
31967;DHT22;18496;52.042;6.812;2024-02-23T12:44:09;8.60;99.90
31967;DHT22;18496;52.042;6.812;2024-02-23T12:46:13;8.60;99.90
31967;DHT22;18496;52.042;6.812;2024-02-23T12:48:17;8.60;99.90
31967;DHT22;18496;52.042;6.812;2024-02-23T12:50:21;8.60;99.90
31967;DHT22;18496;52.042;6.812;2024-02-23T12:52:25;8.70;99.90
31967;DHT22;18496;52.042;6.812;2024-02-23T12:54:29;8.70;99.90
31967;DHT22;18496;52.042;6.812;2024-02-23T12:56:32;8.70;99.90
31967;DHT22;18496;52.042;6.812;2024-02-23T12:58:41;8.70;99.90
31967;DHT22;18496;52.042;6.812;2024-02-23T13:00:45;8.70;99.90
31967;DHT22;18496;52.042;6.812;2024-02-23T13:02:49;8.80;99.90
31967;DHT22;18496;52.042;6.812;2024-02-23T13:04:53;8.80;99.90
31967;DHT22;18496;52.042;6.812;2024-02-23T13:06:56;8.80;99.90
31967;DHT22;18496;52.042;6.812;2024-02-23T13:09:02;8.80;99.90
31967;DHT22;18496;52.042;6.812;2024-02-23T13:11:06;8.80;99.90
31967;DHT22;18496;52.042;6.812;2024-02-23T13:13:10;8.80;99.90
31967;DHT22;18496;52.042;6.812;2024-02-23T13:15:14;8.90;99.90
31967;DHT22;18496;52.042;6.812;2024-02-23T13:17:19;8.90;99.90